Time;durP1;ratioP1;P1;durP2;ratioP2;P2;SDS_P1;SDS_P2;PMS_P1;PMS_P2;Temp;Humidity;BMP_temperature;BMP_pressure;BME280_temperature;BME280_humidity;BME280_pressure;Samples;Min_cycle;Max_cycle;Signal;HPM_P1;HPM_P2
2023/06/01 04:01:11;;;;;;;1.77;1.30;;;13.10;97.30;;;;;;5693013;23;20514;-88
2023/06/01 04:03:40;;;;;;;3.23;2.37;;;13.10;97.30;;;;;;4947434;29;20423;-89
2023/06/01 04:06:11;;;;;;;2.00;1.80;;;13.10;97.30;;;;;;4952421;29;20746;-89
2023/06/01 04:08:42;;;;;;;2.90;2.17;;;13.10;97.30;;;;;;4952564;29;20943;-88
2023/06/01 04:11:07;;;;;;;3.57;2.37;;;13.20;97.30;;;;;;4959496;23;20509;-63
2023/06/01 04:16:12;;;;;;;4.67;2.90;;;13.30;97.30;;;;;;4951499;28;20601;-89
2023/06/01 04:18:38;;;;;;;3.33;2.10;;;13.30;97.30;;;;;;4952184;29;20522;-89
2023/06/01 04:21:03;;;;;;;7.87;2.77;;;13.30;97.30;;;;;;4952462;29;20518;-88
2023/06/01 04:23:29;;;;;;;6.50;2.57;;;13.40;97.30;;;;;;4952049;29;20671;-87
2023/06/01 04:25:58;;;;;;;5.63;3.63;;;13.40;97.30;;;;;;4947321;28;20211;-89
2023/06/01 04:28:24;;;;;;;1.50;1.40;;;13.40;97.30;;;;;;4945996;29;20254;-89
2023/06/01 04:30:51;;;;;;;1.47;1.47;;;13.40;97.30;;;;;;4947546;29;20411;-88
2023/06/01 04:33:17;;;;;;;2.43;2.23;;;13.50;97.30;;;;;;4949013;29;20784;-88
2023/06/01 04:35:43;;;;;;;3.90;1.93;;;13.50;97.30;;;;;;4947853;29;20522;-88
2023/06/01 04:38:08;;;;;;;1.63;1.53;;;13.50;97.30;;;;;;4949267;29;20419;-88
2023/06/01 04:40:34;;;;;;;2.50;2.23;;;13.50;97.30;;;;;;4948831;29;20418;-88
2023/06/01 04:43:02;;;;;;;1.73;1.40;;;13.50;97.30;;;;;;4951185;29;20279;-88
2023/06/01 04:45:30;;;;;;;3.23;1.63;;;13.50;97.30;;;;;;4947707;28;20752;-88
2023/06/01 04:47:57;;;;;;;1.43;1.33;;;13.60;97.30;;;;;;4943508;28;20459;-88
2023/06/01 04:50:23;;;;;;;9.00;2.57;;;13.60;97.30;;;;;;4934024;29;20436;-88
2023/06/01 04:52:49;;;;;;;2.50;2.03;;;13.60;97.30;;;;;;4941628;29;20498;-88
2023/06/01 04:55:16;;;;;;;3.90;1.93;;;13.60;97.30;;;;;;4943000;28;20474;-88
2023/06/01 04:57:45;;;;;;;1.20;1.10;;;13.60;97.30;;;;;;4939398;28;21405;-85
2023/06/01 05:00:13;;;;;;;2.90;2.40;;;13.60;97.30;;;;;;4938144;29;20424;-88
2023/06/01 05:02:43;;;;;;;2.17;1.77;;;13.60;97.30;;;;;;4944457;28;20419;-88
2023/06/01 05:05:09;;;;;;;1.50;1.40;;;13.60;97.30;;;;;;4941633;29;20451;-88
2023/06/01 05:07:39;;;;;;;4.10;2.70;;;13.60;97.30;;;;;;4950600;28;21007;-88
2023/06/01 05:10:06;;;;;;;2.87;2.40;;;13.60;97.30;;;;;;4945909;29;20482;-88
2023/06/01 05:12:33;;;;;;;2.30;1.60;;;13.60;97.30;;;;;;4951059;29;20431;-88
2023/06/01 05:14:59;;;;;;;2.90;1.80;;;13.60;97.30;;;;;;4951343;28;20525;-88
2023/06/01 05:17:25;;;;;;;3.13;1.87;;;13.60;97.30;;;;;;4951612;29;20427;-88
2023/06/01 05:19:51;;;;;;;8.23;3.77;;;13.60;97.30;;;;;;4940361;28;20518;-87
2023/06/01 05:22:16;;;;;;;5.37;3.57;;;13.70;97.30;;;;;;4939825;29;20183;-89
2023/06/01 05:24:42;;;;;;;3.67;3.47;;;13.70;97.30;;;;;;4952412;28;20685;-88
2023/06/01 05:27:07;;;;;;;6.33;3.10;;;13.70;97.30;;;;;;4952383;28;20210;-88
2023/06/01 05:29:33;;;;;;;3.40;2.43;;;13.70;97.30;;;;;;4952050;28;20187;-88
2023/06/01 05:31:58;;;;;;;2.93;2.07;;;13.70;97.30;;;;;;4950732;29;20191;-88
2023/06/01 05:34:24;;;;;;;2.83;2.63;;;13.70;97.30;;;;;;4951395;29;20214;-88
2023/06/01 05:36:49;;;;;;;3.00;2.83;;;13.80;97.30;;;;;;4951547;29;20206;-88
2023/06/01 05:39:15;;;;;;;2.83;2.63;;;13.80;97.30;;;;;;4952893;28;20220;-86
2023/06/01 05:41:41;;;;;;;1.80;1.60;;;13.80;97.30;;;;;;4951285;29;20198;-88
2023/06/01 05:44:06;;;;;;;3.67;2.80;;;13.80;97.30;;;;;;4951151;29;20869;-87
2023/06/01 05:46:32;;;;;;;2.60;1.83;;;13.80;97.30;;;;;;4944815;28;20206;-88
2023/06/01 05:49:01;;;;;;;2.20;1.97;;;13.80;97.30;;;;;;4946610;29;20207;-87
2023/06/01 05:51:29;;;;;;;5.10;3.73;;;13.80;97.30;;;;;;4941609;29;20490;-87
2023/06/01 05:53:55;;;;;;;4.87;2.20;;;13.80;97.30;;;;;;4942801;28;20242;-88
2023/06/01 05:56:20;;;;;;;11.60;4.30;;;13.90;97.30;;;;;;4943139;28;20411;-88
2023/06/01 05:58:50;;;;;;;6.20;4.67;;;13.90;97.30;;;;;;4943261;28;20653;-87
2023/06/01 06:01:16;;;;;;;2.40;1.80;;;13.90;97.30;;;;;;4950411;29;20633;-88
2023/06/01 06:03:45;;;;;;;5.30;2.60;;;13.90;97.30;;;;;;4942060;29;20510;-88
2023/06/01 06:06:10;;;;;;;5.70;3.40;;;13.90;97.30;;;;;;4942806;28;20533;-88
2023/06/01 06:08:35;;;;;;;3.27;1.67;;;14.00;97.30;;;;;;4950596;29;20952;-88
2023/06/01 06:11:01;;;;;;;4.90;3.17;;;14.00;97.30;;;;;;4951049;29;20700;-88
2023/06/01 06:13:30;;;;;;;3.23;2.10;;;14.00;97.30;;;;;;4950499;28;20212;-87
2023/06/01 06:15:55;;;;;;;2.67;2.47;;;14.00;97.30;;;;;;4950789;29;20227;-88
2023/06/01 06:18:21;;;;;;;5.40;3.90;;;14.00;97.30;;;;;;4949988;29;20463;-88
2023/06/01 06:20:47;;;;;;;5.33;2.73;;;14.10;97.30;;;;;;4950717;29;20202;-88
2023/06/01 06:23:12;;;;;;;1.90;1.83;;;14.10;97.30;;;;;;4951611;28;20266;-88
2023/06/01 06:25:40;;;;;;;2.60;2.40;;;14.10;97.30;;;;;;4950399;28;20784;-87
2023/06/01 06:28:05;;;;;;;4.40;3.90;;;14.20;97.30;;;;;;4950711;29;20183;-88
2023/06/01 06:30:31;;;;;;;2.47;2.20;;;14.20;97.30;;;;;;4942054;29;20570;-88
2023/06/01 06:32:56;;;;;;;1.77;1.40;;;14.20;97.30;;;;;;4935412;29;20676;-88
2023/06/01 06:35:22;;;;;;;4.00;2.73;;;14.20;97.30;;;;;;4937308;28;20200;-88
2023/06/01 06:37:47;;;;;;;3.83;2.80;;;14.20;97.30;;;;;;4942524;29;20191;-88
2023/06/01 06:40:13;;;;;;;3.37;2.37;;;14.30;97.30;;;;;;4945030;28;20194;-88
2023/06/01 06:42:38;;;;;;;3.77;2.90;;;14.30;97.30;;;;;;4955269;28;20191;-88
2023/06/01 06:45:05;;;;;;;2.63;2.43;;;14.30;97.30;;;;;;4954583;28;20210;-89
2023/06/01 06:47:30;;;;;;;4.00;2.07;;;14.30;97.30;;;;;;4954101;29;20776;-88
2023/06/01 06:49:57;;;;;;;2.90;2.37;;;14.40;97.30;;;;;;4946366;28;20450;-87
2023/06/01 06:52:22;;;;;;;6.50;3.60;;;14.40;97.30;;;;;;4953774;28;20430;-88
2023/06/01 06:54:48;;;;;;;5.33;2.63;;;14.50;97.30;;;;;;4953999;28;20533;-88
2023/06/01 06:57:13;;;;;;;3.33;2.70;;;14.50;97.30;;;;;;4946350;29;20659;-88
2023/06/01 06:59:39;;;;;;;3.43;3.23;;;14.50;97.30;;;;;;4952458;28;20187;-88
2023/06/01 07:02:05;;;;;;;3.70;2.43;;;14.40;97.30;;;;;;4948817;29;20202;-88
2023/06/01 07:04:30;;;;;;;5.43;3.77;;;14.50;97.30;;;;;;4946346;29;20317;-88
2023/06/01 07:06:56;;;;;;;7.63;2.93;;;14.50;97.30;;;;;;4945970;28;21146;-88
2023/06/01 07:09:21;;;;;;;6.20;4.90;;;14.50;97.30;;;;;;4945930;28;20262;-88
2023/06/01 07:11:50;;;;;;;11.60;4.80;;;14.60;97.30;;;;;;4953491;28;20199;-86
2023/06/01 07:14:16;;;;;;;7.80;2.40;;;14.60;97.30;;;;;;4947673;29;20582;-88
2023/06/01 07:16:41;;;;;;;9.30;4.70;;;14.60;97.30;;;;;;4944579;28;20463;-88
2023/06/01 07:19:07;;;;;;;5.17;3.27;;;14.60;97.30;;;;;;4946074;28;20632;-89
2023/06/01 07:21:33;;;;;;;3.93;3.43;;;14.50;97.30;;;;;;4953687;29;20226;-87
2023/06/01 07:23:59;;;;;;;4.93;4.03;;;14.50;97.30;;;;;;4948987;29;20970;-88
2023/06/01 07:26:28;;;;;;;4.30;3.30;;;14.50;97.30;;;;;;4943266;28;20200;-88
2023/06/01 07:28:54;;;;;;;4.40;3.53;;;14.50;97.30;;;;;;4944831;28;20230;-87
2023/06/01 07:31:21;;;;;;;5.00;3.23;;;14.40;97.30;;;;;;4954151;28;20419;-88
2023/06/01 07:33:46;;;;;;;4.17;3.57;;;14.50;97.30;;;;;;4943097;28;20783;-89
2023/06/01 07:36:12;;;;;;;4.83;4.07;;;14.60;97.30;;;;;;4948235;28;20431;-88
2023/06/01 07:38:37;;;;;;;6.07;2.60;;;14.60;97.30;;;;;;4953553;29;20338;-88
2023/06/01 07:41:03;;;;;;;6.70;3.03;;;14.70;97.30;;;;;;4953720;29;20191;-87
2023/06/01 07:43:29;;;;;;;7.90;2.90;;;14.80;97.30;;;;;;4953361;28;20191;-89
2023/06/01 07:45:55;;;;;;;5.10;3.33;;;14.90;97.30;;;;;;4945663;28;20198;-88
2023/06/01 07:48:20;;;;;;;5.03;2.87;;;14.90;97.30;;;;;;4946495;29;20604;-89
2023/06/01 07:50:46;;;;;;;11.00;3.77;;;15.00;97.30;;;;;;4951688;28;20423;-88
2023/06/01 07:53:12;;;;;;;7.57;3.60;;;15.20;97.30;;;;;;4945117;28;20183;-89
2023/06/01 07:55:37;;;;;;;5.20;3.87;;;15.20;96.40;;;;;;4953401;28;20219;-89
2023/06/01 07:58:04;;;;;;;3.73;2.50;;;15.30;96.80;;;;;;4954330;28;20201;-88
2023/06/01 08:00:29;;;;;;;11.93;4.17;;;15.30;96.40;;;;;;4953117;29;20612;-88
2023/06/01 08:02:55;;;;;;;4.10;2.97;;;15.40;96.80;;;;;;4952947;29;20435;-87
2023/06/01 08:05:21;;;;;;;7.10;3.80;;;15.50;96.30;;;;;;4954167;28;20207;-88
2023/06/01 08:07:48;;;;;;;8.40;3.50;;;15.50;96.40;;;;;;4952895;29;20207;-89
2023/06/01 08:10:14;;;;;;;5.10;3.40;;;15.50;96.50;;;;;;4952997;29;20442;-88
2023/06/01 08:12:42;;;;;;;6.57;4.50;;;15.50;96.20;;;;;;4952438;28;20419;-88
2023/06/01 08:15:08;;;;;;;7.20;4.53;;;15.60;95.90;;;;;;4952911;28;20293;-89
2023/06/01 08:17:34;;;;;;;6.73;3.70;;;15.60;95.80;;;;;;4945875;28;20929;-88
2023/06/01 08:19:59;;;;;;;4.40;2.87;;;15.70;96.00;;;;;;4952701;29;20445;-88
2023/06/01 08:22:25;;;;;;;6.30;3.90;;;15.70;95.50;;;;;;4952011;29;20273;-88
2023/06/01 08:24:51;;;;;;;9.70;3.83;;;15.80;96.00;;;;;;4952713;28;20704;-87
2023/06/01 08:27:21;;;;;;;11.10;3.50;;;15.90;95.30;;;;;;4946400;29;20208;-87
2023/06/01 08:29:48;;;;;;;3.07;2.30;;;15.90;95.50;;;;;;4951283;29;20190;-89
2023/06/01 08:32:14;;;;;;;9.23;3.40;;;15.90;95.80;;;;;;4946414;29;20423;-88
2023/06/01 08:34:40;;;;;;;4.30;2.17;;;16.00;95.10;;;;;;4950375;29;20450;-88
2023/06/01 08:37:05;;;;;;;3.17;2.97;;;16.10;94.80;;;;;;4944885;28;20797;-88
2023/06/01 08:39:31;;;;;;;8.23;5.13;;;16.20;94.80;;;;;;4952370;29;20187;-88
2023/06/01 08:42:06;;;;;;;8.40;5.93;;;16.30;94.50;;;;;;4952000;29;20187;-89
2023/06/01 08:44:41;;;;;;;8.53;4.27;;;16.40;94.20;;;;;;4953607;28;20230;-88
2023/06/01 08:47:08;;;;;;;7.00;3.23;;;16.50;94.30;;;;;;4952321;29;20619;-88
2023/06/01 08:49:35;;;;;;;6.40;4.50;;;16.70;94.00;;;;;;4953071;28;20506;-87
2023/06/01 08:52:13;;;;;;;6.13;3.83;;;16.80;94.10;;;;;;4944960;28;20426;-88
2023/06/01 08:54:39;;;;;;;6.70;4.70;;;16.90;93.20;;;;;;4951209;29;20797;-88
2023/06/01 08:57:07;;;;;;;7.50;5.27;;;17.00;92.70;;;;;;4950928;29;20457;-88
2023/06/01 08:59:35;;;;;;;5.87;3.40;;;17.10;93.00;;;;;;4951821;28;20437;-86
2023/06/01 09:02:00;;;;;;;7.63;5.30;;;17.20;92.90;;;;;;4951450;28;20872;-87
2023/06/01 09:04:26;;;;;;;10.90;5.90;;;17.20;92.10;;;;;;4951177;28;20537;-88
2023/06/01 09:06:52;;;;;;;7.27;3.93;;;17.20;92.10;;;;;;4941465;28;20277;-86
2023/06/01 09:09:18;;;;;;;8.43;4.07;;;17.20;92.20;;;;;;4941773;29;20926;-88
2023/06/01 09:11:44;;;;;;;13.53;5.43;;;17.20;92.30;;;;;;4941987;28;20702;-88
2023/06/01 09:14:21;;;;;;;11.70;5.77;;;17.20;91.80;;;;;;4944296;28;20230;-88
2023/06/01 09:16:49;;;;;;;10.13;5.27;;;17.10;91.80;;;;;;4951967;29;20467;-88
2023/06/01 09:19:15;;;;;;;17.10;7.17;;;17.00;92.40;;;;;;4951523;29;20434;-88
2023/06/01 09:21:58;;;;;;;5.60;4.73;;;17.00;91.70;;;;;;4943644;29;20446;-88
2023/06/01 09:24:24;;;;;;;5.43;4.40;;;17.00;92.00;;;;;;4943638;28;20815;-88
2023/06/01 09:26:51;;;;;;;2.83;2.63;;;17.10;92.00;;;;;;4943370;29;20467;-87
2023/06/01 09:29:17;;;;;;;5.60;3.37;;;17.20;91.70;;;;;;4952715;28;20179;-88
2023/06/01 09:31:47;;;;;;;4.63;3.77;;;17.30;91.60;;;;;;4951618;29;20465;-88
2023/06/01 09:34:19;;;;;;;6.13;3.63;;;17.40;91.40;;;;;;4943417;28;20439;-88
2023/06/01 09:36:45;;;;;;;9.00;4.83;;;17.50;91.20;;;;;;4949583;28;20429;-87
2023/06/01 09:39:16;;;;;;;4.27;2.90;;;17.60;91.70;;;;;;4939989;28;20670;-88
2023/06/01 09:41:59;;;;;;;5.13;4.03;;;17.60;91.00;;;;;;4941257;29;20423;-87
2023/06/01 09:44:31;;;;;;;8.57;3.83;;;17.70;90.80;;;;;;4944863;29;20502;-88
2023/06/01 09:47:09;;;;;;;6.70;3.47;;;17.70;90.30;;;;;;4951019;29;20916;-87
2023/06/01 09:49:42;;;;;;;7.63;3.10;;;17.60;90.20;;;;;;4951468;29;20419;-88
2023/06/01 09:52:16;;;;;;;4.70;3.93;;;17.50;91.40;;;;;;4946631;29;20821;-88
2023/06/01 09:54:49;;;;;;;5.60;3.70;;;17.50;91.50;;;;;;4942489;29;20487;-88
2023/06/01 09:57:26;;;;;;;7.50;3.97;;;17.50;91.20;;;;;;4943658;28;20430;-88
2023/06/01 09:59:51;;;;;;;7.33;3.10;;;17.60;91.70;;;;;;4941002;28;20418;-88
2023/06/01 10:02:18;;;;;;;6.27;3.30;;;17.70;91.60;;;;;;4939823;29;20612;-88
2023/06/01 10:04:58;;;;;;;11.53;4.67;;;17.70;91.60;;;;;;4946944;29;20203;-88
2023/06/01 10:07:30;;;;;;;13.57;4.70;;;17.70;91.10;;;;;;4943457;29;20625;-88
2023/06/01 10:09:58;;;;;;;5.23;3.13;;;17.60;91.60;;;;;;4941223;29;20529;-88
2023/06/01 10:12:25;;;;;;;3.67;3.17;;;17.50;91.90;;;;;;4936334;29;20424;-89
2023/06/01 10:14:51;;;;;;;6.43;3.83;;;17.50;92.00;;;;;;4969131;23;21016;-88
2023/06/01 10:17:18;;;;;;;8.40;4.73;;;17.50;92.50;;;;;;4949547;29;20538;-86
2023/06/01 10:19:45;;;;;;;5.60;3.63;;;17.50;92.40;;;;;;4954970;29;20445;-88
2023/06/01 10:22:11;;;;;;;6.20;3.70;;;17.70;92.40;;;;;;4954949;29;20490;-89
2023/06/01 10:24:40;;;;;;;3.43;2.77;;;17.80;92.30;;;;;;4954912;29;20505;-86
2023/06/01 10:27:06;;;;;;;8.43;5.10;;;17.80;92.30;;;;;;4951365;28;20997;-90
2023/06/01 10:29:32;;;;;;;17.07;5.73;;;17.90;92.50;;;;;;4943773;29;20424;-90
2023/06/01 10:31:58;;;;;;;7.77;3.90;;;17.90;91.90;;;;;;4935447;29;20180;-91
2023/06/01 10:34:50;;;;;;;5.83;2.83;;;18.00;92.80;;;;;;4951084;29;20450;-90
2023/06/01 10:37:17;;;;;;;5.23;4.50;;;18.00;92.80;;;;;;4936259;29;20331;-86
2023/06/01 10:39:43;;;;;;;18.73;4.87;;;18.10;92.00;;;;;;4935616;29;20427;-90
2023/06/01 10:42:18;;;;;;;21.43;6.37;;;18.20;92.20;;;;;;4946587;29;20437;-90
2023/06/01 10:44:44;;;;;;;13.63;5.33;;;18.30;92.20;;;;;;4938962;28;20446;-90
2023/06/01 10:47:12;;;;;;;5.60;3.97;;;18.40;92.70;;;;;;4954586;28;20458;-90
2023/06/01 10:49:47;;;;;;;5.77;4.33;;;18.40;91.50;;;;;;4938106;28;21044;-88
2023/06/01 10:52:33;;;;;;;4.17;3.00;;;18.40;91.60;;;;;;4947475;29;20890;-90
2023/06/01 10:55:10;;;;;;;8.73;4.07;;;18.40;91.90;;;;;;4954331;29;20450;-90
2023/06/01 10:57:37;;;;;;;7.13;4.27;;;18.50;92.40;;;;;;4954744;28;20434;-90
2023/06/01 11:00:23;;;;;;;7.73;4.93;;;18.70;92.10;;;;;;4951184;28;20942;-90
2023/06/01 11:03:05;;;;;;;5.67;3.67;;;18.80;91.70;;;;;;4952370;29;20956;-90
2023/06/01 11:05:51;;;;;;;15.97;5.53;;;18.90;91.80;;;;;;4932516;28;20460;-90
2023/06/01 11:08:22;;;;;;;7.33;4.97;;;19.10;91.70;;;;;;4941892;29;20427;-90
2023/06/01 11:10:51;;;;;;;8.53;4.33;;;19.20;91.10;;;;;;4944599;28;20430;-89
2023/06/01 11:13:22;;;;;;;11.50;5.60;;;19.30;91.40;;;;;;4926964;29;20423;-91
2023/06/01 11:19:06;;;;;;;13.73;6.23;;;19.40;90.20;;;;;;4937872;29;20513;-88
2023/06/01 11:21:43;;;;;;;6.27;4.47;;;19.40;90.40;;;;;;4945458;29;20490;-91
2023/06/01 11:24:18;;;;;;;13.17;5.13;;;19.50;90.90;;;;;;4935261;29;20959;-90
2023/06/01 11:26:46;;;;;;;5.47;4.73;;;19.60;89.80;;;;;;4935374;29;20457;-90
2023/06/01 11:29:22;;;;;;;5.60;3.90;;;19.60;90.00;;;;;;4948877;28;20427;-87
2023/06/01 11:31:56;;;;;;;13.97;7.70;;;19.60;89.60;;;;;;4943943;29;20486;-89
2023/06/01 11:34:30;;;;;;;12.60;6.03;;;19.60;89.70;;;;;;4934284;29;20466;-88
2023/06/01 11:36:58;;;;;;;11.20;5.77;;;19.70;89.80;;;;;;4942519;29;20427;-90
2023/06/01 11:39:28;;;;;;;11.50;5.00;;;19.80;89.20;;;;;;4935760;29;20478;-91
2023/06/01 11:42:08;;;;;;;8.23;5.10;;;19.80;89.10;;;;;;4940145;29;20415;-90
2023/06/01 11:44:35;;;;;;;11.73;6.37;;;19.90;89.30;;;;;;4935625;29;20447;-90
2023/06/01 11:47:01;;;;;;;14.73;4.77;;;20.00;90.10;;;;;;4939813;29;20463;-90
2023/06/01 11:49:28;;;;;;;13.57;7.87;;;20.10;89.30;;;;;;4933768;29;20419;-91
2023/06/01 11:51:56;;;;;;;11.73;6.10;;;20.20;88.30;;;;;;4937489;29;20415;-88
2023/06/01 11:54:30;;;;;;;7.73;4.90;;;20.30;87.90;;;;;;4939355;29;20436;-89
2023/06/01 11:56:56;;;;;;;12.77;6.73;;;20.40;88.40;;;;;;4948401;28;20423;-88
2023/06/01 11:59:22;;;;;;;14.10;5.90;;;20.50;87.40;;;;;;4936096;29;20416;-88
2023/06/01 12:01:49;;;;;;;13.80;7.63;;;20.60;86.80;;;;;;4936423;29;20438;-86
2023/06/01 12:04:16;;;;;;;10.10;5.23;;;20.70;87.60;;;;;;4938921;28;20475;-88
2023/06/01 12:06:43;;;;;;;7.93;5.70;;;20.80;87.40;;;;;;4940474;29;20483;-87
2023/06/01 12:09:09;;;;;;;11.07;6.70;;;20.90;87.30;;;;;;4938575;29;20787;-88
2023/06/01 12:11:35;;;;;;;9.23;5.73;;;21.00;85.90;;;;;;4940077;29;20423;-88
2023/06/01 12:14:05;;;;;;;15.23;5.83;;;21.10;85.10;;;;;;4934553;29;20463;-88
2023/06/01 12:17:00;;;;;;;11.83;6.40;;;21.10;85.40;;;;;;4934462;29;20507;-89
2023/06/01 12:19:26;;;;;;;14.47;6.13;;;21.20;86.30;;;;;;4942330;29;20414;-87
2023/06/01 12:21:54;;;;;;;9.90;5.30;;;21.30;85.10;;;;;;4944216;29;20783;-88
2023/06/01 12:24:34;;;;;;;12.63;4.20;;;21.40;84.40;;;;;;4948811;28;20455;-87
2023/06/01 12:27:01;;;;;;;7.87;5.73;;;21.50;85.20;;;;;;4951516;29;20497;-87
2023/06/01 12:29:37;;;;;;;7.40;5.50;;;21.60;84.40;;;;;;4947017;28;20458;-87
2023/06/01 12:32:04;;;;;;;12.03;4.47;;;21.60;83.20;;;;;;4943486;29;20646;-88
2023/06/01 12:34:29;;;;;;;13.17;4.93;;;21.60;83.70;;;;;;4944273;28;20467;-89
2023/06/01 12:36:55;;;;;;;6.53;4.17;;;21.70;83.80;;;;;;4941839;28;20465;-88
2023/06/01 12:39:37;;;;;;;8.10;3.90;;;21.80;83.20;;;;;;4941073;28;20227;-88
2023/06/01 12:42:05;;;;;;;7.20;4.20;;;21.90;82.50;;;;;;4943031;29;20191;-89
2023/06/01 12:44:31;;;;;;;4.60;3.27;;;22.10;83.20;;;;;;4951912;28;20447;-88
2023/06/01 12:46:58;;;;;;;7.63;5.47;;;22.30;81.40;;;;;;4948104;28;20735;-87
2023/06/01 12:49:24;;;;;;;3.37;3.17;;;22.40;82.40;;;;;;4936939;28;20454;-88
2023/06/01 12:51:50;;;;;;;9.37;3.47;;;22.60;82.10;;;;;;4933735;29;20452;-86
2023/06/01 12:54:17;;;;;;;4.00;3.07;;;22.70;81.90;;;;;;4937173;28;20203;-90
2023/06/01 12:56:43;;;;;;;8.53;4.90;;;22.70;81.40;;;;;;4933762;29;20427;-89
2023/06/01 12:59:08;;;;;;;6.30;3.47;;;22.70;81.80;;;;;;4932771;29;20785;-89
2023/06/01 13:01:34;;;;;;;6.60;3.70;;;22.70;82.50;;;;;;4936549;29;20180;-90
2023/06/01 13:04:00;;;;;;;3.73;3.07;;;22.70;82.10;;;;;;4935117;29;20586;-88
2023/06/01 13:06:26;;;;;;;10.97;5.10;;;22.70;81.00;;;;;;4931869;28;20204;-85
2023/06/01 13:08:52;;;;;;;6.60;3.53;;;22.60;81.90;;;;;;4925321;29;20479;-86
2023/06/01 13:11:17;;;;;;;9.17;4.10;;;22.70;81.70;;;;;;4938120;29;20430;-90
2023/06/01 13:13:43;;;;;;;7.50;3.47;;;22.80;81.40;;;;;;4929812;29;20416;-90
2023/06/01 13:16:08;;;;;;;7.53;4.53;;;22.90;81.30;;;;;;4930958;29;20298;-88
2023/06/01 13:18:34;;;;;;;10.80;4.80;;;22.90;81.40;;;;;;4926641;29;20607;-89
2023/06/01 13:21:00;;;;;;;8.23;4.70;;;22.80;81.10;;;;;;4933514;28;20194;-90
2023/06/01 13:23:27;;;;;;;11.43;4.80;;;22.80;81.70;;;;;;4931490;29;20800;-88
2023/06/01 13:25:53;;;;;;;12.27;5.53;;;22.90;81.70;;;;;;4936000;28;20343;-87
2023/06/01 13:28:19;;;;;;;9.07;5.57;;;23.00;81.10;;;;;;4932120;29;20431;-90
2023/06/01 13:30:44;;;;;;;6.10;4.30;;;23.00;81.10;;;;;;4935377;28;20427;-88
2023/06/01 13:33:10;;;;;;;7.60;4.43;;;23.10;81.40;;;;;;4926473;29;20198;-88
2023/06/01 13:35:36;;;;;;;7.80;5.33;;;23.10;81.20;;;;;;4926677;29;20208;-90
2023/06/01 13:38:01;;;;;;;11.20;4.87;;;23.20;80.00;;;;;;4933892;29;20454;-90
2023/06/01 13:40:27;;;;;;;5.33;4.10;;;23.20;80.30;;;;;;4931682;29;20607;-88
2023/06/01 13:42:53;;;;;;;5.50;4.17;;;23.20;80.80;;;;;;4921596;29;20658;-87
2023/06/01 13:45:20;;;;;;;5.33;3.50;;;23.20;80.50;;;;;;4928759;29;20298;-87
2023/06/01 13:47:46;;;;;;;6.67;3.30;;;23.30;80.70;;;;;;4931081;29;20522;-89
2023/06/01 13:50:12;;;;;;;4.90;3.93;;;23.40;80.30;;;;;;4936205;28;20443;-90
2023/06/01 13:52:41;;;;;;;4.53;3.00;;;23.50;79.00;;;;;;4953828;28;20184;-91
2023/06/01 13:55:08;;;;;;;7.60;3.87;;;23.50;79.30;;;;;;4968320;28;20453;-91
2023/06/01 13:57:38;;;;;;;4.10;2.53;;;23.50;79.60;;;;;;4964127;28;20522;-89
2023/06/01 14:00:05;;;;;;;6.37;3.83;;;23.50;79.60;;;;;;4939849;28;20440;-91
2023/06/01 14:02:30;;;;;;;1.60;1.50;;;23.50;79.30;;;;;;4948712;28;20430;-90
2023/06/01 14:04:56;;;;;;;2.63;2.43;;;23.50;79.00;;;;;;4942025;28;20454;-88
2023/06/01 14:07:21;;;;;;;9.17;3.37;;;23.50;78.80;;;;;;4932718;29;20267;-89
2023/06/01 14:09:47;;;;;;;5.30;3.00;;;23.50;79.30;;;;;;4935095;29;20178;-87
2023/06/01 14:12:12;;;;;;;5.53;3.57;;;23.60;78.40;;;;;;4936392;28;20250;-89
2023/06/01 14:14:38;;;;;;;3.73;2.90;;;23.60;78.30;;;;;;4949479;28;20231;-89
2023/06/01 14:17:04;;;;;;;5.97;3.73;;;23.50;78.20;;;;;;4933593;28;20198;-87
2023/06/01 14:19:29;;;;;;;5.00;3.60;;;23.50;78.60;;;;;;4929195;29;20194;-89
2023/06/01 14:21:56;;;;;;;5.03;3.03;;;23.50;78.50;;;;;;4929164;29;20474;-89
2023/06/01 14:24:21;;;;;;;3.27;2.43;;;23.50;78.50;;;;;;4930926;29;20209;-87
2023/06/01 14:26:47;;;;;;;4.30;2.67;;;23.60;78.50;;;;;;4931295;29;20456;-88
2023/06/01 14:29:12;;;;;;;4.03;2.37;;;23.70;77.60;;;;;;4931465;29;20191;-89
2023/06/01 14:31:38;;;;;;;4.10;2.93;;;23.80;78.10;;;;;;4932533;29;20184;-88
2023/06/01 14:34:03;;;;;;;3.70;2.50;;;23.90;76.80;;;;;;4930934;29;20195;-89
2023/06/01 14:36:29;;;;;;;8.40;3.73;;;24.00;76.20;;;;;;4936329;29;20554;-88
2023/06/01 14:38:54;;;;;;;5.37;3.47;;;23.90;76.40;;;;;;4931690;29;20560;-88
2023/06/01 14:41:20;;;;;;;6.83;3.17;;;23.90;76.80;;;;;;4931577;29;20180;-88
2023/06/01 14:43:45;;;;;;;4.53;3.00;;;24.00;76.60;;;;;;4938931;29;20215;-90
2023/06/01 14:46:11;;;;;;;3.77;3.00;;;24.10;76.30;;;;;;4933981;28;20271;-89
2023/06/01 14:48:37;;;;;;;19.93;2.77;;;24.30;75.50;;;;;;4931040;29;20540;-89
2023/06/01 14:51:02;;;;;;;3.30;3.10;;;24.40;75.00;;;;;;4932983;29;20184;-88
2023/06/01 14:53:28;;;;;;;3.50;2.77;;;24.40;75.10;;;;;;4933161;28;20179;-89
2023/06/01 14:55:53;;;;;;;3.40;2.10;;;24.30;74.10;;;;;;4933956;29;20749;-85
2023/06/01 14:58:19;;;;;;;3.57;1.60;;;24.30;75.10;;;;;;4931385;29;20199;-90
2023/06/01 15:00:44;;;;;;;8.53;2.90;;;24.40;76.60;;;;;;4933139;29;20184;-88
2023/06/01 15:03:10;;;;;;;4.43;3.10;;;24.60;76.10;;;;;;4934747;29;20188;-89
2023/06/01 15:05:35;;;;;;;1.67;1.63;;;24.70;75.60;;;;;;4930161;29;20211;-89
2023/06/01 15:08:01;;;;;;;3.53;2.50;;;24.90;75.60;;;;;;4934384;29;20212;-88
2023/06/01 15:10:27;;;;;;;6.57;2.60;;;24.90;73.80;;;;;;4934593;29;20183;-89
2023/06/01 15:12:52;;;;;;;7.17;2.53;;;24.80;74.70;;;;;;4933645;29;20183;-88
2023/06/01 15:15:18;;;;;;;2.20;1.60;;;24.70;75.30;;;;;;4934244;29;20479;-88
2023/06/01 15:18:00;;;;;;;4.07;2.67;;;24.50;74.60;;;;;;4942578;29;20217;-87
2023/06/01 15:20:29;;;;;;;3.57;3.20;;;24.50;75.70;;;;;;4934791;29;20552;-89
2023/06/01 15:22:57;;;;;;;5.23;3.70;;;24.50;77.00;;;;;;4934641;29;20462;-90
2023/06/01 15:25:22;;;;;;;3.53;3.00;;;24.50;76.50;;;;;;4940596;28;20447;-87
2023/06/01 15:27:48;;;;;;;2.53;2.33;;;24.50;74.70;;;;;;4942913;29;20469;-90
2023/06/01 15:30:13;;;;;;;4.00;2.30;;;24.40;74.60;;;;;;4933329;29;20211;-89
2023/06/01 15:32:39;;;;;;;5.60;3.20;;;24.30;74.90;;;;;;4947934;29;20187;-89
2023/06/01 15:35:08;;;;;;;2.40;1.80;;;24.30;75.10;;;;;;4935865;29;20692;-90
2023/06/01 15:37:34;;;;;;;7.50;2.63;;;24.30;76.20;;;;;;4935781;29;20176;-89
2023/06/01 15:39:59;;;;;;;2.80;1.93;;;24.30;75.90;;;;;;4950056;29;20430;-90
2023/06/01 15:42:25;;;;;;;3.77;2.30;;;24.40;75.80;;;;;;4939399;29;20175;-90
2023/06/01 15:44:50;;;;;;;4.90;2.77;;;24.50;76.40;;;;;;4955161;28;20201;-90
2023/06/01 15:47:18;;;;;;;2.07;1.93;;;24.60;74.50;;;;;;4935096;28;20200;-86
2023/06/01 15:49:44;;;;;;;1.97;1.73;;;24.70;73.60;;;;;;4949603;29;20226;-89
2023/06/01 15:52:09;;;;;;;5.50;2.23;;;24.60;74.30;;;;;;4953466;28;20494;-88
2023/06/01 15:54:35;;;;;;;2.80;1.93;;;24.50;75.10;;;;;;4954404;28;20615;-90
2023/06/01 15:57:03;;;;;;;1.93;1.83;;;24.50;74.60;;;;;;4944805;29;20226;-87
2023/06/01 15:59:29;;;;;;;8.27;2.93;;;24.50;74.30;;;;;;4944973;28;20193;-90
2023/06/01 16:01:55;;;;;;;3.83;2.50;;;24.50;73.40;;;;;;4953756;28;20414;-88
2023/06/01 16:04:21;;;;;;;3.23;2.83;;;24.50;74.30;;;;;;4940833;29;20541;-90
2023/06/01 16:06:46;;;;;;;8.40;2.87;;;24.40;74.20;;;;;;4938924;28;20212;-90
2023/06/01 16:09:11;;;;;;;2.73;2.50;;;24.30;74.40;;;;;;4943456;29;20214;-90
2023/06/01 16:11:37;;;;;;;5.27;2.30;;;24.20;75.50;;;;;;4941048;29;20180;-89
2023/06/01 16:14:08;;;;;;;3.50;2.50;;;24.30;75.50;;;;;;4957018;29;20179;-89
2023/06/01 16:16:38;;;;;;;4.27;2.77;;;24.30;76.00;;;;;;4961350;23;20242;-87
2023/06/01 16:19:08;;;;;;;3.60;2.20;;;24.30;74.30;;;;;;4944428;28;20522;-86
2023/06/01 16:21:37;;;;;;;2.73;2.27;;;24.20;75.10;;;;;;4933916;29;20430;-87
2023/06/01 16:24:03;;;;;;;3.00;2.40;;;24.20;76.00;;;;;;4951301;28;20426;-87
2023/06/01 16:26:29;;;;;;;6.77;3.20;;;24.10;75.80;;;;;;4933557;29;20471;-87
2023/06/01 16:28:57;;;;;;;3.47;2.50;;;23.90;75.70;;;;;;4933506;29;20514;-86
2023/06/01 16:31:30;;;;;;;3.20;2.20;;;23.70;75.70;;;;;;4937474;29;20278;-87
2023/06/01 16:33:56;;;;;;;3.13;2.33;;;23.60;76.60;;;;;;4937021;28;20435;-85
2023/06/01 16:36:26;;;;;;;3.13;2.00;;;23.40;76.30;;;;;;4942801;29;20444;-87
2023/06/01 16:38:54;;;;;;;4.00;2.70;;;23.30;76.90;;;;;;4936413;29;20183;-86
2023/06/01 16:41:21;;;;;;;4.10;2.47;;;23.20;76.70;;;;;;4933470;29;20918;-86
2023/06/01 16:43:46;;;;;;;1.80;1.57;;;23.10;76.80;;;;;;4942650;29;20440;-87
2023/06/01 16:46:12;;;;;;;1.60;1.60;;;23.10;77.30;;;;;;4932712;29;20439;-87
2023/06/01 16:48:38;;;;;;;4.40;2.90;;;23.10;78.30;;;;;;4942175;29;20231;-87
2023/06/01 16:51:04;;;;;;;1.47;1.37;;;23.00;77.60;;;;;;4940433;29;20203;-87
2023/06/01 16:53:29;;;;;;;4.73;3.30;;;22.80;78.40;;;;;;4936960;29;20930;-87